KFRI/FRI METAR and TAF weather

Enter ICAO airport designator
Station Type Date Time Source
KFRI METAR 2020/03/29 20:56 UTC NOAA

KFRI 292056Z AUTO 29017G22KT 10SM CLR 20/M03 A3006 RMK AO2 SLP177 T02021028 55005


Station Type Date Time Source
KFRI Decoded METAR 2020/03/29 20:56 UTC NOAA

Fort Riley, Marshall AAF Ft Riley, KS, United States (KFRI) 39-03-20N 096-45-51W
Mar 29, 2020 - 04:56 PM EDT / 2020.03.29 2056 UTC
Wind: from the WNW (290 degrees) at 20 MPH (17 KT) gusting to 25 MPH (22 KT):0
Visibility: 10 mile(s):0
Sky conditions: clear
Temperature: 68.4 F (20.2 C)
Dew Point: 27.0 F (-2.8 C)
Relative Humidity: 21%
Pressure (altimeter): 30.06 in. Hg (1017 hPa)
Pressure tendency: 0.01 inches (0.5 hPa) lower than three hours ago
ob: KFRI 292056Z AUTO 29017G22KT 10SM CLR 20/M03 A3006 RMK AO2 SLP177 T02021028 55005
cycle: 21

Station Type Date Time Source
KFRI TAF 2020/03/28 01:53 UTC NOAA

TAF
AMD KFRI 280140Z 2801/2903 09010KT 8000 BR OVC010 510042 QNH2962INS
BECMG 2803/2804 19010G15KT 6000 -SHRA BKN003 BKN020 510022 QNH2947INS
TEMPO 2806/2809 VRB20G35KT 4800 TSRAGR BKN003 BKN015CB OVC060
BECMG 2812/2813 18010G15KT 6000 -SHRA OVC002 510022 QNH2944INS
BECMG 2813/2814 19010KT 6000 BR BKN002 BKN018 520022 QNH2940INS
BECMG 2815/2816 20010G20KT 9999 NSW SCT018 520053 QNH2937INS
BECMG 2816/2817 24025G35KT 9999 SKC 520023 QNH2938INS
BECMG 2818/2819 27030G40KT 9999 SCT050 BKN065 530024 QNH2934INS
BECMG 2900/2901 30030G40KT 9999 BKN017 BKN025 520033 QNH2948INS TX20/2820Z TN10/2812Z LAST NO
AMDS AFT 2802 NEXT 3005

Example: see airport list